Time;durP1;ratioP1;P1;durP2;ratioP2;P2;SDS_P1;SDS_P2;PMS_P1;PMS_P2;Temp;Humidity;BMP_temperature;BMP_pressure;BME280_temperature;BME280_humidity;BME280_pressure;Samples;Min_cycle;Max_cycle;Signal;HPM_P1;HPM_P2
2022/11/12 00:00:05;;;;;;;27.83;17.00;;;;;;;4.26;94.18;103220.59;5073826;28;20077;-82
2022/11/12 00:02:51;;;;;;;28.52;17.95;;;;;;;4.22;94.55;103225.00;5073521;28;20181;-81
2022/11/12 00:05:36;;;;;;;24.17;13.68;;;;;;;4.20;94.52;103222.72;5072467;28;20465;-82
2022/11/12 00:08:21;;;;;;;21.95;14.13;;;;;;;4.19;94.81;103218.53;5073082;28;20488;-82
2022/11/12 00:11:07;;;;;;;22.45;14.65;;;;;;;4.16;94.73;103221.84;5073828;28;20045;-82
2022/11/12 00:13:52;;;;;;;27.77;15.68;;;;;;;4.16;94.88;103215.81;5072537;28;20049;-82
2022/11/12 00:16:36;;;;;;;24.92;15.20;;;;;;;4.13;94.77;103217.25;5073509;28;20061;-82
2022/11/12 00:19:21;;;;;;;21.25;13.90;;;;;;;4.09;94.50;103216.38;5074009;28;20124;-81
2022/11/12 00:22:06;;;;;;;24.15;15.48;;;;;;;4.05;94.77;103218.13;5075420;28;20053;-81
2022/11/12 00:24:51;;;;;;;24.25;14.90;;;;;;;4.05;94.80;103214.72;5072955;28;20053;-81
2022/11/12 00:27:36;;;;;;;23.65;14.77;;;;;;;4.01;94.82;103225.16;5073759;28;20096;-81
2022/11/12 00:30:21;;;;;;;27.42;14.00;;;;;;;3.99;94.33;103224.75;5074450;28;20481;-81
2022/11/12 00:33:07;;;;;;;17.75;13.25;;;;;;;3.95;94.66;103216.00;5072687;28;20053;-80
2022/11/12 00:35:52;;;;;;;22.23;13.63;;;;;;;3.91;94.75;103218.53;5073758;28;20135;-81
2022/11/12 00:38:37;;;;;;;22.15;13.20;;;;;;;3.87;94.92;103215.00;5074531;28;20128;-80
2022/11/12 00:41:21;;;;;;;19.92;13.25;;;;;;;3.85;94.76;103224.34;5073063;28;20049;-81
2022/11/12 00:44:06;;;;;;;19.52;12.30;;;;;;;3.83;94.72;103229.94;5073719;28;20061;-81
2022/11/12 00:46:51;;;;;;;17.02;12.07;;;;;;;3.82;94.84;103225.78;5073732;28;20049;-81
2022/11/12 00:49:36;;;;;;;18.15;11.60;;;;;;;3.81;94.90;103226.88;5072391;28;20458;-81
2022/11/12 00:52:21;;;;;;;17.33;11.73;;;;;;;3.77;95.02;103222.59;5073518;28;20497;-81
2022/11/12 00:55:06;;;;;;;18.38;11.35;;;;;;;3.76;94.98;103216.56;5074185;28;20045;-81
2022/11/12 00:57:52;;;;;;;26.80;11.38;;;;;;;3.72;95.13;103228.09;5071830;28;20048;-81
2022/11/12 01:00:37;;;;;;;17.15;10.93;;;;;;;3.71;95.04;103226.56;5071796;28;20079;-81
2022/11/12 01:03:22;;;;;;;17.52;11.18;;;;;;;3.68;95.26;103228.00;5073096;28;20585;-81
2022/11/12 01:06:10;;;;;;;17.50;11.10;;;;;;;3.64;95.28;103219.97;5072163;28;20498;-81
2022/11/12 01:08:55;;;;;;;17.00;9.52;;;;;;;3.62;95.46;103219.53;5072591;28;20053;-81
2022/11/12 01:11:41;;;;;;;12.00;9.75;;;;;;;3.60;95.45;103221.72;5073649;28;20056;-81
2022/11/12 01:14:26;;;;;;;16.17;10.10;;;;;;;3.59;95.60;103211.56;5070595;28;20044;-81
2022/11/12 01:17:11;;;;;;;15.38;9.15;;;;;;;3.56;95.15;103205.06;5072130;28;20045;-81
2022/11/12 01:19:56;;;;;;;12.63;8.95;;;;;;;3.55;95.57;103213.31;5073583;28;20132;-81
2022/11/12 01:22:40;;;;;;;10.55;9.10;;;;;;;3.51;95.72;103207.94;5070894;28;20144;-80
2022/11/12 01:25:25;;;;;;;11.50;8.57;;;;;;;3.50;95.89;103221.44;5072102;28;20128;-81
2022/11/12 01:28:10;;;;;;;11.25;7.90;;;;;;;3.46;95.51;103213.41;5074279;28;20049;-81
2022/11/12 01:30:55;;;;;;;15.98;8.30;;;;;;;3.44;95.86;103214.84;5072668;28;21053;-81
2022/11/12 01:33:42;;;;;;;10.57;7.85;;;;;;;3.44;96.00;103212.97;5071865;28;20049;-81
2022/11/12 01:36:31;;;;;;;12.07;8.43;;;;;;;3.43;96.11;103211.44;5073304;28;20045;-81
2022/11/12 01:39:16;;;;;;;16.65;9.15;;;;;;;3.43;96.32;103213.31;5071253;28;20446;-82
2022/11/12 01:42:01;;;;;;;14.10;8.82;;;;;;;3.43;96.56;103219.34;5072007;28;20053;-81
2022/11/12 01:44:46;;;;;;;13.90;8.63;;;;;;;3.44;96.65;103207.72;5072591;28;20057;-80
2022/11/12 01:47:33;;;;;;;16.20;9.45;;;;;;;3.45;96.98;103203.97;5074038;28;20057;-81
2022/11/12 01:50:25;;;;;;;14.68;10.18;;;;;;;3.47;97.26;103208.91;5071698;28;20045;-81
2022/11/12 01:53:12;;;;;;;17.40;10.07;;;;;;;3.47;97.27;103214.19;5072855;28;20128;-81
2022/11/12 01:55:58;;;;;;;24.25;11.30;;;;;;;3.44;97.70;103212.97;5070926;28;20501;-81
2022/11/12 01:58:45;;;;;;;20.95;10.85;;;;;;;3.45;97.94;103203.97;5071743;28;20490;-81
2022/11/12 02:01:30;;;;;;;16.35;10.85;;;;;;;3.45;98.00;103203.97;5071369;28;20486;-81
2022/11/12 02:04:16;;;;;;;18.20;11.13;;;;;;;3.43;97.99;103206.19;5073467;28;20057;-79
2022/11/12 02:07:02;;;;;;;17.15;9.15;;;;;;;3.40;97.90;103214.72;5071973;28;20049;-79
2022/11/12 02:09:47;;;;;;;16.55;9.65;;;;;;;3.39;97.93;103210.56;5072630;28;20053;-79
2022/11/12 02:15:38;;;;;;;12.35;9.48;;;;;;;3.34;97.67;103198.38;5071122;28;20087;-79
2022/11/12 02:18:22;;;;;;;17.25;8.73;;;;;;;3.33;97.74;103202.13;5072652;28;20045;-79
2022/11/12 02:21:08;;;;;;;15.27;9.35;;;;;;;3.28;97.60;103198.94;5048783;28;20050;-79
2022/11/12 02:24:05;;;;;;;15.85;8.70;;;;;;;3.26;97.42;103196.63;5049534;28;20053;-79
2022/11/12 02:26:53;;;;;;;16.70;8.55;;;;;;;3.23;97.51;103196.50;5052642;28;20208;-78
2022/11/12 02:29:45;;;;;;;17.63;9.40;;;;;;;3.20;97.48;103186.66;5048715;28;20057;-78
2022/11/12 02:32:30;;;;;;;10.30;8.43;;;;;;;3.18;97.46;103183.59;5051523;28;20042;-79
2022/11/12 02:35:15;;;;;;;25.55;9.40;;;;;;;3.13;97.30;103184.56;5051993;28;20053;-78
2022/11/12 02:37:59;;;;;;;12.88;9.02;;;;;;;3.10;97.52;103187.88;5053052;28;20049;-79
2022/11/12 02:40:44;;;;;;;15.88;9.55;;;;;;;3.09;97.52;103180.28;5051325;28;20056;-79
2022/11/12 02:43:29;;;;;;;17.60;9.07;;;;;;;3.09;97.44;103188.19;5051726;28;20088;-78
2022/11/12 02:46:14;;;;;;;20.23;9.30;;;;;;;3.07;97.37;103178.00;5050534;28;20053;-79
2022/11/12 02:48:59;;;;;;;13.20;8.85;;;;;;;3.08;97.58;103174.25;5051226;28;20065;-78
2022/11/12 02:51:44;;;;;;;11.18;8.30;;;;;;;3.05;97.38;103180.19;5052106;28;20057;-79
2022/11/12 02:54:29;;;;;;;16.38;9.30;;;;;;;3.03;97.68;103178.97;5049315;28;20065;-79
2022/11/12 02:57:14;;;;;;;17.20;9.30;;;;;;;3.02;97.86;103191.34;5050687;28;20483;-79
2022/11/12 02:59:59;;;;;;;16.33;8.63;;;;;;;2.99;98.16;103187.53;5050925;28;20527;-79
2022/11/12 03:02:57;;;;;;;18.40;10.05;;;;;;;3.00;97.97;103180.41;5049401;28;20053;-79
2022/11/12 03:05:45;;;;;;;15.15;9.00;;;;;;;2.98;98.29;103185.22;5050893;28;20049;-80
2022/11/12 03:08:30;;;;;;;13.82;9.68;;;;;;;2.97;98.08;103181.03;5052021;28;20592;-79
2022/11/12 03:11:16;;;;;;;16.55;9.32;;;;;;;2.94;98.38;103190.34;5050179;28;20057;-79
2022/11/12 03:14:02;;;;;;;22.73;9.18;;;;;;;2.93;98.42;103185.44;5051255;28;20081;-80
2022/11/12 03:16:47;;;;;;;18.67;9.80;;;;;;;2.91;98.31;103180.50;5051761;28;20042;-78
2022/11/12 03:19:32;;;;;;;16.52;9.65;;;;;;;2.89;98.48;103181.91;5049902;28;20486;-78
2022/11/12 03:22:17;;;;;;;19.63;10.05;;;;;;;2.86;97.94;103178.06;5050987;28;20419;-79
2022/11/12 03:25:02;;;;;;;17.17;10.05;;;;;;;2.80;98.27;103182.00;5051925;28;20132;-79
2022/11/12 03:27:47;;;;;;;33.70;11.10;;;;;;;2.78;98.73;103180.81;5062313;28;20057;-80
2022/11/12 03:30:35;;;;;;;21.33;9.68;;;;;;;2.78;98.36;103175.56;5049500;28;20049;-79
2022/11/12 03:33:20;;;;;;;38.92;10.80;;;;;;;2.78;98.69;103181.59;5051315;28;20093;-79
2022/11/12 03:36:05;;;;;;;15.65;10.25;;;;;;;2.74;98.55;103180.69;5049641;28;20418;-79
2022/11/12 03:38:50;;;;;;;13.50;9.65;;;;;;;2.73;98.38;103181.78;5050392;28;20538;-79
2022/11/12 03:41:35;;;;;;;23.70;10.07;;;;;;;2.70;98.75;103179.03;5050655;28;20457;-79
2022/11/12 03:44:20;;;;;;;15.85;9.85;;;;;;;2.69;98.94;103175.63;5050283;28;20152;-79
2022/11/12 03:47:05;;;;;;;21.67;10.13;;;;;;;2.69;99.03;103175.63;5074101;28;20057;-79
2022/11/12 03:49:49;;;;;;;39.20;10.63;;;;;;;2.66;99.11;103169.16;5074462;28;20865;-79
2022/11/12 03:52:35;;;;;;;41.63;10.95;;;;;;;2.63;99.19;103163.78;5074976;28;20057;-79
2022/11/12 03:55:22;;;;;;;23.77;11.15;;;;;;;2.62;99.22;103170.16;5073294;28;20494;-80
2022/11/12 03:58:07;;;;;;;15.43;10.93;;;;;;;2.61;99.58;103168.59;5073525;28;20488;-80
2022/11/12 04:00:52;;;;;;;21.20;11.15;;;;;;;2.60;99.10;103175.72;5075146;28;20048;-79
2022/11/12 04:03:37;;;;;;;14.50;9.35;;;;;;;2.61;99.52;103179.13;5086122;28;20057;-79
2022/11/12 04:09:25;;;;;;;15.35;10.93;;;;;;;2.62;99.64;103175.41;5072838;28;20045;-79
2022/11/12 04:15:25;;;;;;;16.85;10.65;;;;;;;2.62;99.87;103180.66;5072521;28;20425;-80
2022/11/12 04:27:33;;;;;;;15.55;10.50;;;;;;;2.56;99.55;103187.97;5072059;28;20045;-80
2022/11/12 04:30:18;;;;;;;16.25;10.80;;;;;;;2.55;99.37;103178.56;5070649;28;20037;-79
2022/11/12 04:33:03;;;;;;;17.80;11.68;;;;;;;2.52;99.38;103189.72;5057862;28;20053;-79
2022/11/12 04:35:48;;;;;;;20.48;10.90;;;;;;;2.52;99.51;103181.06;5071472;28;20049;-80
2022/11/12 04:38:33;;;;;;;17.58;10.63;;;;;;;2.48;99.32;103183.56;5070448;28;20418;-79
2022/11/12 04:47:29;;;;;;;16.38;10.10;;;;;;;2.37;99.13;103184.31;5070923;28;20140;-79
2022/11/12 04:50:16;;;;;;;14.77;10.02;;;;;;;2.33;99.12;103171.06;5071579;28;20101;-80
2022/11/12 04:53:02;;;;;;;14.75;9.13;;;;;;;2.26;98.88;103176.06;5072231;28;20088;-80
2022/11/12 04:55:52;;;;;;;14.38;8.75;;;;;;;2.26;99.14;103168.94;5072754;28;20048;-80
2022/11/12 04:58:36;;;;;;;19.52;10.30;;;;;;;2.28;99.15;103172.03;5073607;28;20052;-79
2022/11/12 05:01:21;;;;;;;16.75;10.25;;;;;;;2.27;99.26;103169.72;5072091;28;20049;-79
2022/11/12 05:04:06;;;;;;;15.32;10.05;;;;;;;2.29;99.41;103170.16;5071599;28;20049;-79
2022/11/12 05:06:53;;;;;;;15.02;10.05;;;;;;;2.30;99.30;103161.19;5073399;28;20567;-79
2022/11/12 05:09:38;;;;;;;18.52;10.63;;;;;;;2.27;99.30;103153.94;5073625;28;20136;-79
2022/11/12 05:12:23;;;;;;;18.33;10.60;;;;;;;2.26;99.50;103160.28;5072506;28;20084;-79
2022/11/12 05:15:10;;;;;;;19.55;11.10;;;;;;;2.25;99.73;103151.63;5073620;28;20053;-79
2022/11/12 05:17:55;;;;;;;21.23;10.45;;;;;;;2.27;99.72;103151.31;5072912;28;20498;-81
2022/11/12 05:20:40;;;;;;;80.90;12.05;;;;;;;2.25;99.93;103148.25;5072483;28;20124;-79
2022/11/12 05:23:25;;;;;;;25.13;10.40;;;;;;;2.26;100.00;103147.91;5072694;28;20156;-81
2022/11/12 05:26:10;;;;;;;31.08;10.55;;;;;;;2.28;100.00;103147.59;5087005;28;20090;-79
2022/11/12 05:28:55;;;;;;;24.17;10.45;;;;;;;2.27;100.00;103144.19;5071909;28;20544;-79
2022/11/12 05:31:40;;;;;;;25.52;10.40;;;;;;;2.25;100.00;103141.13;5072795;28;20493;-81
2022/11/12 05:34:25;;;;;;;39.70;10.52;;;;;;;2.26;100.00;103147.91;5072798;28;20053;-79
2022/11/12 05:37:11;;;;;;;17.42;9.95;;;;;;;2.25;100.00;103137.72;5071337;28;20049;-80
2022/11/12 05:39:56;;;;;;;18.73;10.88;;;;;;;2.25;100.00;103145.63;5072321;28;20171;-79
2022/11/12 05:42:41;;;;;;;17.10;10.63;;;;;;;2.24;100.00;103144.84;5072964;28;20523;-79
2022/11/12 05:45:26;;;;;;;14.55;10.27;;;;;;;2.22;100.00;103148.88;5071874;28;20049;-79
2022/11/12 05:48:11;;;;;;;20.92;11.40;;;;;;;2.17;100.00;103141.97;5085785;28;20053;-80
2022/11/12 05:50:56;;;;;;;24.00;10.90;;;;;;;2.14;100.00;103152.34;5072945;28;20052;-79
2022/11/12 05:53:57;;;;;;;19.00;11.23;;;;;;;2.05;100.00;103147.16;5071569;28;20037;-79
2022/11/12 05:56:43;;;;;;;17.38;11.15;;;;;;;2.00;100.00;103150.75;5072343;28;20060;-79
2022/11/12 05:59:28;;;;;;;23.48;11.52;;;;;;;1.94;100.00;103143.41;5073381;28;20049;-79
2022/11/12 06:02:13;;;;;;;27.45;11.82;;;;;;;1.93;100.00;103150.53;5071363;28;20057;-79
2022/11/12 06:04:58;;;;;;;26.52;12.70;;;;;;;1.94;100.00;103152.06;5070102;28;20053;-79
2022/11/12 06:07:43;;;;;;;22.55;10.85;;;;;;;1.89;100.00;103140.97;5071950;28;20895;-79
2022/11/12 06:10:28;;;;;;;35.10;11.80;;;;;;;1.87;100.00;103148.41;5071011;28;20053;-79
2022/11/12 06:13:14;;;;;;;37.63;11.30;;;;;;;1.89;100.00;103157.50;5072138;28;20198;-79
2022/11/12 06:15:59;;;;;;;20.45;11.27;;;;;;;1.82;100.00;103159.88;5073271;28;20078;-79
2022/11/12 06:18:44;;;;;;;22.17;10.80;;;;;;;1.79;100.00;103150.00;5070693;28;20049;-79
2022/11/12 06:21:29;;;;;;;16.35;11.10;;;;;;;1.74;100.00;103149.41;5071471;28;20049;-79
2022/11/12 06:24:14;;;;;;;18.10;10.30;;;;;;;1.74;100.00;103147.56;5072561;28;20502;-79
2022/11/12 06:26:59;;;;;;;17.27;10.80;;;;;;;1.79;100.00;103151.88;5070712;28;20076;-79
2022/11/12 06:29:44;;;;;;;17.70;11.18;;;;;;;1.80;100.00;103141.03;5071020;28;20583;-79
2022/11/12 06:32:29;;;;;;;14.75;10.38;;;;;;;1.82;100.00;103146.75;5072460;28;20061;-79
2022/11/12 06:35:15;;;;;;;17.73;10.73;;;;;;;1.84;100.00;103162.94;5070170;28;20100;-79
2022/11/12 06:38:00;;;;;;;16.45;11.05;;;;;;;1.84;100.00;103165.56;5072103;28;20176;-79
2022/11/12 06:40:45;;;;;;;16.13;10.50;;;;;;;1.84;100.00;103159.56;5072067;28;20053;-79
2022/11/12 06:43:31;;;;;;;15.07;10.68;;;;;;;1.82;99.78;103157.25;5070070;28;20049;-79
2022/11/12 06:46:16;;;;;;;16.17;10.73;;;;;;;1.81;100.00;103152.31;5071313;28;20053;-79
2022/11/12 06:49:02;;;;;;;19.75;11.15;;;;;;;1.82;100.00;103148.59;5072381;28;20288;-79
2022/11/12 06:51:50;;;;;;;16.27;10.35;;;;;;;1.84;100.00;103160.31;5070043;28;20128;-79
2022/11/12 06:54:35;;;;;;;16.33;10.77;;;;;;;1.82;99.86;103153.84;5069821;28;20049;-79
2022/11/12 06:57:19;;;;;;;16.15;11.02;;;;;;;1.82;99.66;103157.25;5071932;28;20478;-80
2022/11/12 07:00:05;;;;;;;15.82;11.23;;;;;;;1.81;99.58;103166.22;5072553;28;20049;-79
2022/11/12 07:02:50;;;;;;;21.00;11.75;;;;;;;1.79;99.60;103170.25;5071100;28;20049;-79
2022/11/12 07:05:37;;;;;;;23.95;12.18;;;;;;;1.80;99.69;103177.03;5071086;28;20052;-79
2022/11/12 07:08:22;;;;;;;19.30;11.25;;;;;;;1.81;99.57;103173.31;5073183;28;20517;-79
2022/11/12 07:11:08;;;;;;;16.17;11.75;;;;;;;1.81;99.47;103168.84;5070895;28;20076;-79
2022/11/12 07:13:53;;;;;;;16.58;11.00;;;;;;;1.83;99.70;103171.91;5071422;28;20844;-80
2022/11/12 07:16:39;;;;;;;17.40;11.45;;;;;;;1.85;99.59;103171.59;5071722;28;20053;-79
2022/11/12 07:19:23;;;;;;;18.02;11.48;;;;;;;1.84;99.44;103183.97;5070347;28;20089;-80
2022/11/12 07:22:08;;;;;;;15.90;10.52;;;;;;;1.85;99.40;103190.75;5073905;28;20057;-79
2022/11/12 07:24:53;;;;;;;16.02;11.35;;;;;;;1.83;99.30;103194.78;5074155;28;20052;-80
2022/11/12 07:27:38;;;;;;;16.85;11.00;;;;;;;1.88;99.59;103197.22;5073616;28;20532;-81
2022/11/12 07:30:23;;;;;;;20.42;10.77;;;;;;;1.92;99.53;103198.13;5074185;28;20879;-80
2022/11/12 07:33:08;;;;;;;18.58;11.25;;;;;;;1.99;99.55;103203.66;5075661;28;20053;-80
2022/11/12 07:36:02;;;;;;;17.52;10.90;;;;;;;2.04;99.56;103198.19;5073748;28;20049;-80
2022/11/12 07:38:51;;;;;;;16.35;11.25;;;;;;;2.10;99.55;103199.53;5075402;28;20053;-80
2022/11/12 07:41:36;;;;;;;15.25;10.48;;;;;;;2.15;99.68;103185.41;5074192;28;20053;-80
2022/11/12 07:44:21;;;;;;;16.38;11.15;;;;;;;2.15;99.83;103199.34;5072323;28;20053;-80
2022/11/12 07:47:06;;;;;;;20.10;11.52;;;;;;;2.19;99.74;103192.34;5071298;28;20480;-81
2022/11/12 07:49:51;;;;;;;16.00;10.82;;;;;;;2.26;99.86;103186.56;5075405;28;20486;-81
2022/11/12 07:52:36;;;;;;;17.05;11.05;;;;;;;2.32;99.79;103186.06;5072992;28;20543;-80
2022/11/12 07:55:21;;;;;;;14.35;10.95;;;;;;;2.36;99.69;103195.94;5074095;28;20057;-79
2022/11/12 07:58:06;;;;;;;19.23;11.00;;;;;;;2.42;100.00;103189.34;5074752;28;20140;-80
2022/11/12 08:00:52;;;;;;;15.45;11.48;;;;;;;2.47;100.00;103197.03;5074008;28;20576;-82
2022/11/12 08:03:37;;;;;;;16.20;11.02;;;;;;;2.51;100.00;103200.56;5073031;28;20540;-81
2022/11/12 08:06:23;;;;;;;19.63;11.48;;;;;;;2.57;100.00;103209.78;5075601;28;20108;-80
2022/11/12 08:09:09;;;;;;;16.92;11.70;;;;;;;2.62;100.00;103207.72;5073716;28;20482;-80
2022/11/12 08:11:53;;;;;;;18.33;11.23;;;;;;;2.67;100.00;103212.78;5074829;28;20045;-83
2022/11/12 08:14:38;;;;;;;18.50;11.32;;;;;;;2.70;100.00;103215.88;5075415;28;20049;-80
2022/11/12 08:17:23;;;;;;;18.30;11.82;;;;;;;2.75;100.00;103213.03;5075493;28;20053;-80
2022/11/12 08:20:09;;;;;;;12.77;10.55;;;;;;;2.84;100.00;103217.09;5074378;28;20045;-81
2022/11/12 08:22:58;;;;;;;19.42;11.95;;;;;;;2.91;100.00;103216.56;5075472;28;20132;-82
2022/11/12 08:25:44;;;;;;;17.75;12.07;;;;;;;2.98;100.00;103216.78;5072846;28;20049;-81
2022/11/12 08:28:31;;;;;;;16.52;12.60;;;;;;;3.06;100.00;103212.53;5073326;28;20053;-80
2022/11/12 08:31:22;;;;;;;18.58;12.68;;;;;;;3.14;100.00;103212.44;5074130;28;20049;-79
2022/11/12 08:34:13;;;;;;;19.30;12.55;;;;;;;3.23;100.00;103226.25;5073335;28;20148;-79
2022/11/12 08:37:03;;;;;;;17.73;13.27;;;;;;;3.33;100.00;103219.78;5074369;28;20049;-79
2022/11/12 08:39:48;;;;;;;22.15;14.07;;;;;;;3.42;100.00;103215.19;5074955;28;20049;-78
2022/11/12 08:42:33;;;;;;;19.92;13.60;;;;;;;3.53;100.00;103223.41;5072234;28;20049;-80
2022/11/12 08:45:18;;;;;;;23.80;14.45;;;;;;;3.60;100.00;103218.34;5073228;28;20604;-81
2022/11/12 08:48:14;;;;;;;22.38;14.32;;;;;;;3.73;100.00;103224.34;5074710;28;20053;-80
2022/11/12 08:51:03;;;;;;;17.38;12.75;;;;;;;3.85;100.00;103222.47;5073003;28;20112;-81
2022/11/12 08:53:49;;;;;;;20.27;13.23;;;;;;;3.97;100.00;103219.81;5074309;28;20049;-82
2022/11/12 08:56:34;;;;;;;14.88;12.95;;;;;;;4.07;100.00;103220.44;5074733;28;20140;-82
2022/11/12 08:59:19;;;;;;;22.60;12.85;;;;;;;4.19;100.00;103220.41;5071871;28;20049;-82
2022/11/12 09:02:05;;;;;;;16.38;12.40;;;;;;;4.29;100.00;103222.56;5073982;28;20049;-80
2022/11/12 09:04:50;;;;;;;19.38;12.48;;;;;;;4.38;100.00;103222.44;5073946;28;20053;-81
2022/11/12 09:07:35;;;;;;;21.77;12.77;;;;;;;4.51;100.00;103211.47;5072600;28;20045;-81
2022/11/12 09:10:35;;;;;;;22.52;12.73;;;;;;;4.63;100.00;103216.69;5073932;28;20552;-81
2022/11/12 09:13:20;;;;;;;20.85;13.68;;;;;;;4.75;100.00;103215.88;5074765;28;20057;-81
2022/11/12 09:16:08;;;;;;;17.15;13.23;;;;;;;4.86;100.00;103221.41;5072879;28;20057;-81
2022/11/12 09:18:53;;;;;;;18.60;13.73;;;;;;;4.98;100.00;103223.97;5073200;28;20539;-81
2022/11/12 09:21:38;;;;;;;20.30;13.32;;;;;;;5.10;100.00;103220.47;5075179;28;20069;-80
2022/11/12 09:24:23;;;;;;;23.00;14.55;;;;;;;5.20;100.00;103215.44;5072968;28;20056;-79
2022/11/12 09:27:08;;;;;;;18.90;12.57;;;;;;;5.31;100.00;103219.09;5072558;28;20045;-79
2022/11/12 09:29:53;;;;;;;18.77;13.80;;;;;;;5.42;100.00;103227.25;5073504;28;20125;-79
2022/11/12 09:32:39;;;;;;;18.75;13.57;;;;;;;5.52;100.00;103229.38;5072530;28;20465;-79
2022/11/12 09:35:23;;;;;;;20.52;13.63;;;;;;;5.67;100.00;103227.81;5073292;28;20053;-79
2022/11/12 09:38:09;;;;;;;21.42;13.75;;;;;;;5.77;100.00;103229.91;5074043;28;20045;-79
2022/11/12 09:41:05;;;;;;;16.77;13.55;;;;;;;5.89;100.00;103223.78;5072170;28;20045;-79
2022/11/12 09:43:52;;;;;;;19.08;13.45;;;;;;;5.96;100.00;103226.56;5072570;28;20100;-79
2022/11/12 09:46:52;;;;;;;23.35;13.85;;;;;;;6.07;100.00;103222.25;5074311;28;20053;-79
2022/11/12 09:50:20;;;;;;;19.08;12.98;;;;;;;6.23;100.00;103225.59;5072419;28;20616;-79
2022/11/12 09:53:40;;;;;;;17.67;13.73;;;;;;;6.40;100.00;103231.56;5071402;28;20481;-79
2022/11/12 09:56:29;;;;;;;16.23;12.82;;;;;;;6.53;100.00;103235.56;5073655;28;20501;-79
2022/11/12 09:59:14;;;;;;;17.38;13.32;;;;;;;6.59;100.00;103232.31;5073640;28;20092;-81
2022/11/12 10:02:26;;;;;;;16.52;13.23;;;;;;;6.67;100.00;103239.25;5074359;28;20048;-80
2022/11/12 10:05:34;;;;;;;20.73;13.53;;;;;;;6.80;100.00;103237.19;5073591;28;20057;-80
2022/11/12 10:08:28;;;;;;;17.42;13.85;;;;;;;6.88;100.00;103233.53;5072515;28;20280;-80
2022/11/12 10:11:23;;;;;;;19.10;13.82;;;;;;;6.97;100.00;103228.03;5072360;28;20045;-81
2022/11/12 10:14:37;;;;;;;17.23;13.07;;;;;;;7.12;100.00;103231.66;5071407;28;20057;-80
2022/11/12 10:17:40;;;;;;;15.65;12.93;;;;;;;7.22;100.00;103233.69;5073479;28;20045;-81
2022/11/12 10:20:51;;;;;;;19.98;13.80;;;;;;;7.37;100.00;103235.44;5070336;28;20472;-81
2022/11/12 10:23:45;;;;;;;17.23;13.38;;;;;;;7.47;100.00;103231.44;5074329;28;20049;-80
2022/11/12 10:26:31;;;;;;;16.13;12.95;;;;;;;7.51;100.00;103233.00;5071875;28;20053;-82
2022/11/12 10:29:47;;;;;;;17.63;13.55;;;;;;;7.64;100.00;103231.66;5071262;28;20433;-82
2022/11/12 10:32:35;;;;;;;17.13;13.60;;;;;;;7.75;100.00;103231.81;5073759;28;20394;-80
2022/11/12 10:35:22;;;;;;;17.55;13.45;;;;;;;7.85;100.00;103233.84;5071782;28;20049;-80
2022/11/12 10:38:13;;;;;;;15.93;12.55;;;;;;;7.96;100.00;103226.78;5073104;28;20493;-80
2022/11/12 10:40:58;;;;;;;16.38;12.93;;;;;;;8.05;99.29;103226.47;5071017;28;20485;-80
2022/11/12 10:44:01;;;;;;;17.88;13.38;;;;;;;8.14;99.42;103228.88;5072149;28;20140;-80
2022/11/12 10:46:46;;;;;;;18.38;13.02;;;;;;;8.22;98.74;103217.22;5073121;28;20092;-80
2022/11/12 10:49:31;;;;;;;20.20;13.05;;;;;;;8.33;98.29;103218.13;5071239;28;20049;-80
2022/11/12 10:52:21;;;;;;;15.35;12.57;;;;;;;8.38;98.04;103217.81;5072100;28;20057;-80
2022/11/12 10:55:18;;;;;;;18.70;12.63;;;;;;;8.45;97.84;103217.09;5071871;28;20053;-80
2022/11/12 10:58:15;;;;;;;12.75;11.40;;;;;;;8.62;96.91;103208.53;5070584;28;20049;-80
2022/11/12 11:01:13;;;;;;;18.65;11.20;;;;;;;8.72;96.32;103205.22;5072732;28;20049;-82
2022/11/12 11:03:58;;;;;;;13.18;11.32;;;;;;;8.74;96.47;103202.97;5070983;28;20053;-79
2022/11/12 11:06:43;;;;;;;19.70;12.02;;;;;;;8.83;95.88;103206.03;5071943;28;20512;-79
2022/11/12 11:09:29;;;;;;;14.23;11.55;;;;;;;8.90;94.91;103211.41;5072641;28;20061;-79
2022/11/12 11:12:27;;;;;;;12.25;10.82;;;;;;;8.98;94.58;103204.28;5070373;28;20115;-80
2022/11/12 11:15:21;;;;;;;14.30;10.13;;;;;;;9.06;94.01;103199.78;5072018;28;20472;-79
2022/11/12 11:18:12;;;;;;;12.32;10.32;;;;;;;9.17;92.98;103198.72;5072800;28;20053;-78
2022/11/12 11:21:07;;;;;;;14.98;10.70;;;;;;;9.21;92.71;103204.03;5071128;28;20131;-78
2022/11/12 11:24:02;;;;;;;12.23;10.93;;;;;;;9.28;92.19;103204.09;5072192;28;20498;-78
2022/11/12 11:27:03;;;;;;;13.35;9.77;;;;;;;9.35;92.12;103198.81;5070365;28;20057;-78
2022/11/12 11:30:08;;;;;;;12.73;10.13;;;;;;;9.36;91.96;103195.78;5071408;28;20120;-78
2022/11/12 11:33:22;;;;;;;13.43;10.75;;;;;;;9.43;91.37;103187.09;5074065;28;20123;-82
2022/11/12 11:36:08;;;;;;;11.93;9.82;;;;;;;9.56;90.06;103195.53;5072145;28;20057;-80
2022/11/12 11:39:22;;;;;;;11.57;8.73;;;;;;;9.70;89.59;103187.59;5073692;28;20049;-78
2022/11/12 11:42:38;;;;;;;10.98;8.93;;;;;;;9.79;88.64;103181.94;5071624;28;20107;-79
2022/11/12 11:46:02;;;;;;;10.18;9.13;;;;;;;9.97;87.43;103178.22;5072258;28;20492;-86
2022/11/12 11:49:24;;;;;;;11.85;9.70;;;;;;;10.07;87.56;103181.25;5071647;28;20502;-83
2022/11/12 11:52:32;;;;;;;11.07;9.07;;;;;;;10.10;86.16;103181.25;5070984;28;20053;-83
2022/11/12 11:55:21;;;;;;;10.60;8.45;;;;;;;10.18;85.89;103179.38;5071919;28;20053;-82
2022/11/12 11:58:28;;;;;;;13.07;8.25;;;;;;;10.20;86.10;103172.56;5070426;28;20053;-84
2022/11/12 12:01:44;;;;;;;10.05;8.40;;;;;;;10.26;85.81;103168.41;5072525;28;20049;-82
2022/11/12 12:04:47;;;;;;;9.55;8.48;;;;;;;10.35;85.05;103174.13;5070883;28;20131;-82
2022/11/12 12:08:01;;;;;;;12.70;7.88;;;;;;;10.45;84.59;103166.50;5074267;28;20937;-81
2022/11/12 12:11:14;;;;;;;10.30;8.50;;;;;;;10.58;84.51;103170.34;5074334;28;20405;-82
2022/11/12 12:14:25;;;;;;;8.60;7.80;;;;;;;10.67;83.97;103168.06;5075772;28;20049;-81
2022/11/12 12:17:21;;;;;;;9.00;8.10;;;;;;;10.73;83.37;103161.22;5074420;28;20060;-81
2022/11/12 12:20:34;;;;;;;10.40;7.72;;;;;;;10.85;82.79;103152.81;5074071;28;20049;-83
2022/11/12 12:23:34;;;;;;;8.45;7.55;;;;;;;10.87;82.42;103155.09;5073636;28;20049;-76
2022/11/12 12:26:45;;;;;;;7.93;7.20;;;;;;;10.88;82.18;103143.28;5075105;28;20508;-79
2022/11/12 12:29:37;;;;;;;10.07;7.88;;;;;;;10.91;82.72;103139.84;5073913;28;20053;-78
2022/11/12 12:32:37;;;;;;;9.15;6.93;;;;;;;10.92;83.15;103141.38;5075059;28;20103;-78
2022/11/12 12:35:44;;;;;;;9.80;7.13;;;;;;;10.92;82.82;103128.81;5075732;28;20506;-78
2022/11/12 12:38:51;;;;;;;7.28;6.57;;;;;;;10.94;83.03;103123.88;5073566;28;20049;-78
2022/11/12 12:41:55;;;;;;;7.85;7.05;;;;;;;11.00;82.76;103121.56;5075171;28;20053;-77
2022/11/12 12:45:00;;;;;;;271.33;177.27;;;;;;;11.09;82.50;103127.25;5073706;28;20045;-78
2022/11/12 12:47:47;;;;;;;46.47;31.23;;;;;;;11.09;81.98;103119.28;5074961;28;20636;-78
2022/11/12 12:50:37;;;;;;;12.43;11.02;;;;;;;11.18;82.25;103116.97;5073785;28;20533;-79
2022/11/12 12:53:28;;;;;;;10.88;9.52;;;;;;;11.24;82.36;103110.06;5074004;28;20061;-80
2022/11/12 12:56:12;;;;;;;9.82;8.82;;;;;;;11.31;81.31;103101.28;5075282;28;20115;-79
2022/11/12 12:59:02;;;;;;;9.82;8.63;;;;;;;11.42;82.08;103101.25;5074646;28;20061;-80
2022/11/12 13:02:00;;;;;;;15.40;8.38;;;;;;;11.51;81.69;103091.69;5074578;28;20041;-80
2022/11/12 13:04:53;;;;;;;11.82;8.65;;;;;;;11.56;81.90;103093.19;5062493;28;20049;-80
2022/11/12 13:07:44;;;;;;;8.82;7.93;;;;;;;11.64;81.89;103090.06;5060972;28;20053;-80
2022/11/12 13:10:44;;;;;;;9.88;8.10;;;;;;;11.65;81.53;103077.50;5074719;28;20053;-80
2022/11/12 13:13:34;;;;;;;10.35;9.25;;;;;;;11.69;81.83;103086.22;5079980;28;121518;-80
2022/11/12 13:16:52;;;;;;;13.20;8.63;;;;;;;11.76;81.90;103088.09;5094674;28;20078;-80
2022/11/12 13:19:43;;;;;;;9.48;8.55;;;;;;;11.75;81.08;103087.34;5057628;28;20053;-79
2022/11/12 13:22:31;;;;;;;10.25;8.07;;;;;;;11.82;81.17;103078.56;5071163;28;20044;-79